Pagina principale
METAR-TAF:

METAR-TAF

Aeroporti :

Aeroporto di Costantina-Mohamed Boudiaf

Costantina, Algeria

latitudine: 36-17N, longitudine: 006-37E, altezza: 694 m

Osservazione

Il bollettino è stato emesso 46 minuti fa, alle 17:00 UTC
Vento 12 kt da est/nord-est
Temperature 25°C
Umidità 34%
Pressione 1015 hPa
Visibilità 10 km o più
Poco nuvoloso ad un'altezza di 3000 ft
Nuvoloso ad un'altezza di 20000 ft

METAR: DABC 311700Z 07012KT 9999 FEW030 BKN200 25/08 Q1015

Ora: 18:46 (17:46 UTC)

Previsione

Il bollettino è stato emesso 46 minuti fa, alle 17:00 UTC
Previsione valida dal 31 alle 18 UTC al 01 alle 18 UTC
Vento 8 kt da nord/nord-ovest
Visibilità 10 km o più
Poco nuvoloso ad un'altezza di 3300 ft
Nubi sparse ad un'altezza di 10000 ft
Temporaneamente
dal 31 alle 18 UTC al 31 alle 24 UTC
Vento 12 kt da est/nord-est
Poco nuvoloso ad un'altezza di 2300 ft, Cumulo congesto.

TAF: DABC 311700Z 3118/0118 34008KT 9999 FEW033 SCT100 TEMPO 3118/3124 06012KT FEW023TCU

Osservazioni e previsioni meteorologiche di più di 4000 aeroporti (messaggi METAR e TAF).

Le stazioni disponibili sono rappresentate dai dischi gialli e rossi sulla carta.

Puntare il mouse per vedere il nome della stazione.

Clicca sopra per visualizzare le osservazioni e previsioni meteorologiche.

Per cambiare la mappa : fare clic sui pulsanti verdi con una croce nera per ingrandire, il pulsante verde con un trattino per diminuire, o sulla freccia verde per le mappe adiacenti.


METAR-TAF: